Komiza, Croatia

7:36 AM CEST on September 21, 2014 (GMT +0200)
Dalmatia | Change Station
CLOSE
Current Station
Personal Weather Station
Location: Komiža, SPLITSKO-DALMATINSKA žUPANIJA
Elevation: 3 ft
Nearby Weather Stations

Elev 3 ft 43.04 °N, 16.09 °E | Updated 6 seconds ago

Mostly Cloudy
Mostly Cloudy
71.6 °F
Feels Like 70 °F
N
0.0
Wind Variable Wind from NE
Gusts 0.0 mph

Today
High -- | Low -- °F
--% Chance of Precip.
Yesterday
High -- | Low -- °F
Precip. -- in
6:41 AM 6:55 PM
Waning Crescent, 8% visible
Pressure 30.01 in
Visibility 6.2 miles
Clouds Few 1700 ft
Mostly Cloudy 3700 ft
Heat Index 70 °F
Dew Point 67 °F
Humidity 85%
Rainfall 0.00 in
Snow Depth Not available.
UV 0 out of 12
Pollen Not available.
Air Quality Not available.
Flu Activity Not available.
METAR LDSP 210530Z VRB03KT 9999 FEW017 BKN037 20/18 Q1016 NOSIG

More Conditions Fewer Conditions

Pressure 30.01 in
Visibility 6.2 miles
Clouds Few 1700 ft
Mostly Cloudy 3700 ft
Heat Index 70 °F
Dew Point 67 °F
Humidity 85%
Rainfall 0.00 in
Snow Depth Not available.
UV 0 out of 12
Pollen Not available.
Air Quality Not available.
Flu Activity Not available.
METAR LDSP 210530Z VRB03KT 9999 FEW017 BKN037 20/18 Q1016 NOSIG

More Conditions Fewer Conditions

10-Day Weather Forecast

Almanac

Astronomy

Sep. 21, 2014 Rise Set
Actual Time 6:41 AM CEST 6:55 PM CEST
Civil Twilight 6:13 AM CEST 7:23 PM CEST
Nautical Twilight 5:39 AM CEST 7:56 PM CEST
Astronomical Twilight 5:05 AM CEST 8:30 PM CEST
Moon 3:55 AM CEST 5:24 PM CEST
Length of Visible Light 13h 10m
Length of Day
12h 13m
Tomorrow will be 2m 54s shorter.
Waning Crescent, 8% of the Moon is Illuminated
Today
Waning Crescent
Sep 24
New
Oct 1
First Quarter
Oct 8
Full
Oct 15
Last Quarter

Yesterday's Extremes

Country Highs Country Lows

Community

WunderPhotos

Upload Photos

1,755,090 photos uploaded!

Nearby

Snow Depth

Not available.

Earthquake Activity

City Distance Mag. Time & Date
No recent earthquake activity has been reported nearby.
Minimum magnitude displayed is 2.5.

Coastal Water Temperatures

Place Temperature
No Stations Reporting

Nearby Weather Stations